createdAt,value
2023-03-16T00:01:21.126Z,0.48
2023-03-16T00:05:20.378Z,0.64
2023-03-16T00:09:20.460Z,0.77
2023-03-16T00:13:20.352Z,0.56
2023-03-16T00:17:20.742Z,0.67
2023-03-16T00:21:21.078Z,0.88
2023-03-16T00:25:20.434Z,0.78
2023-03-16T00:29:20.398Z,0.67
2023-03-16T00:33:20.418Z,0.44
2023-03-16T00:37:20.606Z,0.96
2023-03-16T00:41:20.452Z,0.61
2023-03-16T00:45:20.487Z,0.61
2023-03-16T00:49:20.507Z,0.60
2023-03-16T00:53:20.618Z,0.74
2023-03-16T00:57:20.614Z,0.72
2023-03-16T01:01:20.661Z,0.52
2023-03-16T01:05:20.733Z,0.50
2023-03-16T01:09:20.784Z,0.66
2023-03-16T01:13:20.899Z,0.90
2023-03-16T01:17:21.082Z,0.77
2023-03-16T01:21:20.956Z,0.85
2023-03-16T01:25:21.035Z,0.58
2023-03-16T01:29:21.157Z,0.64
2023-03-16T01:33:21.581Z,0.77
2023-03-16T01:37:21.363Z,0.65
2023-03-16T01:41:21.397Z,0.85
2023-03-16T01:45:21.505Z,0.49
2023-03-16T01:49:21.688Z,0.71
2023-03-16T01:53:22.164Z,0.75
2023-03-16T01:57:21.826Z,0.54
2023-03-16T02:01:21.859Z,0.67
2023-03-16T02:05:21.966Z,0.66
2023-03-16T02:09:22.052Z,0.76
2023-03-16T02:13:22.125Z,0.83
2023-03-16T02:17:22.242Z,0.58
2023-03-16T02:21:22.374Z,0.52
2023-03-16T02:25:22.454Z,0.76
2023-03-16T02:29:22.618Z,0.86
2023-03-16T02:33:22.697Z,0.70
2023-03-16T02:37:22.818Z,0.61
2023-03-16T02:41:22.960Z,0.71
2023-03-16T02:45:23.067Z,0.62
2023-03-16T02:49:23.197Z,0.55
2023-03-16T02:53:23.319Z,0.52
2023-03-16T02:57:23.455Z,0.55
2023-03-16T03:01:23.628Z,0.67
2023-03-16T03:05:24.551Z,0.55
2023-03-16T03:09:23.991Z,0.69
2023-03-16T03:13:24.105Z,0.54
2023-03-16T03:17:24.254Z,0.43
2023-03-16T03:21:25.143Z,0.75
2023-03-16T03:25:24.595Z,0.65
2023-03-16T03:29:24.776Z,0.68
2023-03-16T03:33:24.947Z,0.44
2023-03-16T03:37:25.025Z,0.58
2023-03-16T03:41:25.295Z,0.89
2023-03-16T03:45:25.395Z,0.77
2023-03-16T03:49:25.666Z,0.77
2023-03-16T03:53:26.597Z,0.68
2023-03-16T03:57:26.605Z,0.61
2023-03-16T04:01:26.091Z,0.71
2023-03-16T04:05:26.213Z,0.60
2023-03-16T04:09:26.346Z,0.70
2023-03-16T04:13:26.511Z,0.60
2023-03-16T04:17:26.692Z,0.54
2023-03-16T04:21:26.820Z,0.67
2023-03-16T04:25:26.789Z,0.57
2023-03-16T04:29:26.812Z,0.69
2023-03-16T04:33:26.769Z,0.89
2023-03-16T04:37:26.704Z,0.82
2023-03-16T04:41:26.676Z,0.52
2023-03-16T04:45:29.678Z,0.54
2023-03-16T04:49:26.586Z,0.59
2023-03-16T04:53:26.546Z,0.65
2023-03-16T04:57:26.494Z,0.43
2023-03-16T05:01:26.492Z,0.50
2023-03-16T05:05:26.536Z,0.55
2023-03-16T05:09:26.426Z,0.60
2023-03-16T05:13:26.355Z,0.65
2023-03-16T05:17:26.331Z,0.54
2023-03-16T05:21:26.260Z,0.66
2023-03-16T05:25:26.232Z,0.57
2023-03-16T05:29:26.657Z,0.47
2023-03-16T05:33:26.620Z,0.46
2023-03-16T05:37:26.137Z,0.59
2023-03-16T05:41:26.322Z,0.43
2023-03-16T05:45:26.490Z,0.48
2023-03-16T05:49:26.615Z,0.59
2023-03-16T05:53:26.779Z,0.74
2023-03-16T05:57:26.873Z,0.55
2023-03-16T06:01:27.060Z,0.66
2023-03-16T06:05:27.170Z,0.39
2023-03-16T06:09:27.346Z,0.62
2023-03-16T06:13:27.479Z,0.64
2023-03-16T06:17:27.656Z,0.79
2023-03-16T06:21:28.026Z,0.46
2023-03-16T06:25:28.058Z,0.59
2023-03-16T06:29:28.148Z,0.59
2023-03-16T06:33:29.214Z,0.58
2023-03-16T06:37:28.746Z,0.68
2023-03-16T06:41:29.686Z,0.83
2023-03-16T06:45:29.236Z,0.80
2023-03-16T06:49:28.832Z,1.12
2023-03-16T06:53:28.905Z,1.77
2023-03-16T06:57:32.249Z,0.99
2023-03-16T07:01:29.609Z,1.01
2023-03-16T07:05:28.904Z,0.99
2023-03-16T07:09:29.702Z,1.39
2023-03-16T07:13:28.959Z,1.30
2023-03-16T07:17:28.825Z,1.37
2023-03-16T07:21:28.687Z,1.21
2023-03-16T07:25:28.724Z,1.37
2023-03-16T07:29:28.741Z,1.12
2023-03-16T07:33:29.641Z,1.01
2023-03-16T07:37:28.789Z,0.94
2023-03-16T07:41:30.082Z,1.90
2023-03-16T07:45:29.064Z,0.94
2023-03-16T07:49:28.850Z,1.60
2023-03-16T07:53:28.675Z,0.71
2023-03-16T07:57:28.616Z,1.06
2023-03-16T08:01:28.651Z,1.21
2023-03-16T08:05:28.428Z,1.19
2023-03-16T08:09:28.534Z,1.42
2023-03-16T08:13:28.945Z,0.99
2023-03-16T08:17:28.453Z,1.23
2023-03-16T08:21:28.629Z,1.24
2023-03-16T08:25:28.812Z,1.16
2023-03-16T08:29:28.983Z,1.58
2023-03-16T08:33:29.027Z,2.26
2023-03-16T08:37:29.254Z,2.07
2023-03-16T08:41:29.464Z,2.24
2023-03-16T08:45:31.079Z,1.63
2023-03-16T08:49:29.438Z,1.63
2023-03-16T08:53:29.746Z,1.91
2023-03-16T08:57:29.361Z,1.61
2023-03-16T09:01:29.678Z,1.75
2023-03-16T09:05:34.746Z,1.49
2023-03-16T09:09:29.793Z,1.32
2023-03-16T09:13:29.856Z,1.41
2023-03-16T09:17:30.140Z,1.40
2023-03-16T09:21:30.109Z,1.67
2023-03-16T09:25:32.687Z,1.50
2023-03-16T09:29:30.683Z,1.04
2023-03-16T09:33:30.553Z,1.34
2023-03-16T09:37:44.427Z,1.92
2023-03-16T09:41:32.843Z,1.45
2023-03-16T09:45:31.062Z,1.55
2023-03-16T09:49:30.542Z,2.11
2023-03-16T09:53:30.801Z,1.79
2023-03-16T09:57:30.786Z,2.04
2023-03-16T10:01:31.826Z,1.66
2023-03-16T10:05:30.961Z,1.62
2023-03-16T10:09:31.365Z,1.21
2023-03-16T10:13:31.118Z,1.38
2023-03-16T10:17:31.285Z,1.43
2023-03-16T10:21:31.361Z,1.41
2023-03-16T10:25:31.641Z,1.11
2023-03-16T10:29:31.850Z,1.35
2023-03-16T10:33:32.499Z,1.77
2023-03-16T10:37:32.449Z,1.41
2023-03-16T10:41:32.015Z,1.40
2023-03-16T10:45:35.014Z,1.28
2023-03-16T10:49:33.863Z,1.33
2023-03-16T10:53:32.803Z,1.33
2023-03-16T10:57:32.196Z,1.45
2023-03-16T11:01:32.435Z,1.19
2023-03-16T11:05:32.193Z,1.17
2023-03-16T11:09:32.291Z,0.99
2023-03-16T11:13:32.233Z,1.10
2023-03-16T11:17:32.512Z,1.26
2023-03-16T11:21:32.136Z,1.18
2023-03-16T11:25:32.172Z,1.38
2023-03-16T11:29:32.113Z,1.50
2023-03-16T11:33:31.998Z,1.68
2023-03-16T11:37:32.019Z,1.20
2023-03-16T11:41:31.945Z,1.25
2023-03-16T11:45:31.927Z,1.09
2023-03-16T11:49:31.934Z,1.36
2023-03-16T11:53:31.849Z,1.10
2023-03-16T11:57:31.816Z,1.85
2023-03-16T12:01:32.020Z,3.24
2023-03-16T12:05:31.965Z,3.10
2023-03-16T12:09:31.713Z,4.49
2023-03-16T12:13:31.807Z,4.71
2023-03-16T12:17:31.763Z,4.28
2023-03-16T12:21:34.016Z,3.55
2023-03-16T12:25:31.906Z,4.08
2023-03-16T12:29:32.809Z,3.70
2023-03-16T12:33:31.659Z,4.30
2023-03-16T12:37:31.625Z,4.05
2023-03-16T12:41:31.602Z,2.70
2023-03-16T12:45:31.980Z,2.80
2023-03-16T12:49:31.464Z,3.04
2023-03-16T12:53:31.900Z,3.03
2023-03-16T12:57:31.393Z,3.29
2023-03-16T13:01:31.851Z,2.70
2023-03-16T13:05:31.535Z,3.04
2023-03-16T13:09:31.674Z,2.97
2023-03-16T13:13:31.772Z,2.40
2023-03-16T13:17:31.975Z,2.30
2023-03-16T13:21:31.971Z,2.37
2023-03-16T13:25:32.018Z,2.34
2023-03-16T13:29:32.091Z,2.14
2023-03-16T13:33:32.119Z,2.23
2023-03-16T13:37:32.197Z,2.19
2023-03-16T13:41:32.266Z,2.17
2023-03-16T13:45:32.526Z,2.18
2023-03-16T13:49:32.398Z,1.84
2023-03-16T13:53:32.555Z,2.27
2023-03-16T13:57:32.614Z,1.84
2023-03-16T14:01:32.817Z,1.83
2023-03-16T14:05:32.767Z,1.76
2023-03-16T14:09:33.810Z,1.79
2023-03-16T14:13:33.029Z,1.57
2023-03-16T14:17:33.085Z,1.64
2023-03-16T14:21:33.231Z,1.90
2023-03-16T14:25:33.337Z,1.83
2023-03-16T14:29:33.456Z,1.65
2023-03-16T14:33:33.596Z,1.44
2023-03-16T14:37:33.869Z,1.70
2023-03-16T14:41:33.951Z,1.87
2023-03-16T14:45:34.202Z,1.77
2023-03-16T14:49:34.368Z,2.21
2023-03-16T14:53:34.588Z,1.65
2023-03-16T14:57:34.638Z,1.56
2023-03-16T15:01:35.048Z,1.48
2023-03-16T15:05:36.376Z,1.39
2023-03-16T15:09:34.495Z,1.12
2023-03-16T15:13:34.493Z,1.65
2023-03-16T15:17:34.543Z,1.33
2023-03-16T15:21:34.940Z,1.33
2023-03-16T15:25:34.464Z,1.24
2023-03-16T15:29:34.381Z,1.24
2023-03-16T15:33:34.311Z,1.37
2023-03-16T15:37:35.836Z,1.15
2023-03-16T15:41:46.806Z,1.36
2023-03-16T15:45:35.243Z,1.52
2023-03-16T15:49:46.679Z,1.33
2023-03-16T15:53:35.973Z,1.23
2023-03-16T15:57:34.140Z,1.41
2023-03-16T16:01:34.041Z,1.78
2023-03-16T16:05:34.026Z,1.90
2023-03-16T16:09:34.151Z,1.88
2023-03-16T16:13:44.290Z,1.36
2023-03-16T16:17:50.454Z,1.68
2023-03-16T16:21:35.047Z,1.43
2023-03-16T16:25:34.042Z,2.00
2023-03-16T16:29:34.014Z,1.64
2023-03-16T16:33:33.978Z,1.61
2023-03-16T16:37:33.952Z,1.55
2023-03-16T16:41:36.919Z,1.88
2023-03-16T16:45:33.859Z,1.14
2023-03-16T16:49:33.800Z,2.26
2023-03-16T16:53:33.776Z,1.62
2023-03-16T16:57:33.767Z,1.35
2023-03-16T17:01:33.776Z,1.46
2023-03-16T17:05:33.648Z,1.66
2023-03-16T17:09:33.649Z,1.75
2023-03-16T17:13:33.562Z,1.06
2023-03-16T17:17:33.675Z,1.28
2023-03-16T17:21:33.579Z,1.77
2023-03-16T17:25:33.549Z,1.38
2023-03-16T17:29:35.554Z,1.73
2023-03-16T17:33:33.479Z,1.55
2023-03-16T17:37:33.923Z,1.12
2023-03-16T17:41:34.043Z,1.51
2023-03-16T17:45:33.819Z,1.45
2023-03-16T17:49:34.005Z,1.64
2023-03-16T17:53:34.124Z,1.66
2023-03-16T17:57:34.029Z,1.60
2023-03-16T18:01:34.264Z,1.64
2023-03-16T18:05:34.427Z,1.56
2023-03-16T18:09:34.160Z,1.43
2023-03-16T18:13:34.953Z,1.67
2023-03-16T18:17:34.056Z,1.93
2023-03-16T18:21:34.094Z,1.46
2023-03-16T18:25:35.431Z,1.88
2023-03-16T18:29:34.140Z,1.58
2023-03-16T18:33:34.145Z,1.36
2023-03-16T18:37:34.249Z,1.65
2023-03-16T18:41:34.284Z,1.56
2023-03-16T18:45:34.337Z,1.74
2023-03-16T18:49:34.343Z,1.43
2023-03-16T18:53:34.419Z,1.99
2023-03-16T18:57:34.499Z,1.70
2023-03-16T19:01:35.447Z,1.52
2023-03-16T19:05:34.656Z,1.62
2023-03-16T19:09:34.735Z,1.51
2023-03-16T19:13:34.843Z,1.78
2023-03-16T19:17:34.954Z,1.68
2023-03-16T19:21:34.933Z,1.76
2023-03-16T19:25:36.034Z,1.44
2023-03-16T19:29:35.265Z,1.16
2023-03-16T19:33:35.262Z,1.61
2023-03-16T19:37:35.442Z,1.68
2023-03-16T19:41:35.578Z,1.60
2023-03-16T19:45:35.708Z,1.62
2023-03-16T19:49:35.824Z,1.39
2023-03-16T19:53:36.004Z,1.64
2023-03-16T19:57:36.523Z,1.84
2023-03-16T20:01:38.989Z,1.49
2023-03-16T20:05:36.239Z,1.80
2023-03-16T20:09:36.180Z,1.77
2023-03-16T20:13:36.189Z,1.40
2023-03-16T20:17:36.077Z,1.48
2023-03-16T20:21:36.085Z,1.52
2023-03-16T20:25:36.000Z,1.28
2023-03-16T20:29:36.008Z,1.31
2023-03-16T20:33:35.983Z,1.36
2023-03-16T20:37:35.941Z,1.28
2023-03-16T20:41:36.039Z,1.84
2023-03-16T20:45:35.791Z,1.79
2023-03-16T20:49:35.752Z,1.53
2023-03-16T20:53:35.725Z,1.95
2023-03-16T20:57:35.898Z,1.57
2023-03-16T21:01:36.049Z,1.87
2023-03-16T21:05:36.251Z,1.47
2023-03-16T21:09:36.433Z,1.75
2023-03-16T21:13:36.611Z,1.74
2023-03-16T21:17:36.843Z,1.63
2023-03-16T21:21:36.759Z,1.74
2023-03-16T21:25:36.736Z,1.34
2023-03-16T21:29:36.761Z,1.20
2023-03-16T21:33:36.681Z,1.48
2023-03-16T21:37:37.136Z,1.45
2023-03-16T21:41:36.617Z,1.54
2023-03-16T21:45:36.542Z,1.26
2023-03-16T21:49:36.565Z,1.72
2023-03-16T21:53:36.538Z,1.37
2023-03-16T21:57:37.035Z,1.32
2023-03-16T22:01:38.239Z,1.54
2023-03-16T22:05:36.341Z,1.54
2023-03-16T22:09:36.322Z,1.42
2023-03-16T22:13:36.283Z,1.28
2023-03-16T22:17:36.488Z,1.33
2023-03-16T22:21:36.596Z,1.51
2023-03-16T22:25:36.444Z,1.39
2023-03-16T22:29:36.377Z,1.78
2023-03-16T22:33:36.365Z,1.50
2023-03-16T22:37:36.348Z,1.61
2023-03-16T22:41:36.383Z,2.15
2023-03-16T22:45:36.389Z,1.77
2023-03-16T22:49:36.295Z,1.68
2023-03-16T22:53:36.320Z,1.74
2023-03-16T22:57:36.363Z,1.67
2023-03-16T23:01:36.639Z,1.56
2023-03-16T23:05:36.156Z,1.82
2023-03-16T23:09:36.127Z,1.89
2023-03-16T23:13:36.079Z,1.99
2023-03-16T23:17:36.051Z,1.86
2023-03-16T23:21:36.100Z,2.11
2023-03-16T23:25:35.973Z,1.90
2023-03-16T23:29:35.996Z,1.71
2023-03-16T23:33:35.930Z,1.73
2023-03-16T23:37:36.069Z,2.67
2023-03-16T23:41:35.861Z,1.89
2023-03-16T23:45:35.766Z,1.99
2023-03-16T23:49:36.041Z,2.01
2023-03-16T23:53:35.927Z,1.94
2023-03-16T23:57:35.950Z,1.92
